sensor_id;sensor_type;location;lat;lon;timestamp;temperature;humidity
41481;DHT22;27217;51.220;5.308;2023-06-14T00:01:53;21.60;54.20
41481;DHT22;27217;51.220;5.308;2023-06-14T00:04:21;21.50;54.40
41481;DHT22;27217;51.220;5.308;2023-06-14T00:06:50;21.40;54.70
41481;DHT22;27217;51.220;5.308;2023-06-14T00:09:17;21.20;55.00
41481;DHT22;27217;51.220;5.308;2023-06-14T00:11:43;21.00;55.30
41481;DHT22;27217;51.220;5.308;2023-06-14T00:14:09;20.90;55.80
41481;DHT22;27217;51.220;5.308;2023-06-14T00:16:35;20.90;55.90
41481;DHT22;27217;51.220;5.308;2023-06-14T00:19:02;20.80;56.00
41481;DHT22;27217;51.220;5.308;2023-06-14T00:21:32;20.80;56.20
41481;DHT22;27217;51.220;5.308;2023-06-14T00:23:58;20.80;56.30
41481;DHT22;27217;51.220;5.308;2023-06-14T00:26:24;20.80;56.20
41481;DHT22;27217;51.220;5.308;2023-06-14T00:28:52;20.80;56.00
41481;DHT22;27217;51.220;5.308;2023-06-14T00:31:17;20.70;56.50
41481;DHT22;27217;51.220;5.308;2023-06-14T00:33:46;20.70;56.70
41481;DHT22;27217;51.220;5.308;2023-06-14T00:36:12;20.60;57.10
41481;DHT22;27217;51.220;5.308;2023-06-14T00:38:38;20.40;57.60
41481;DHT22;27217;51.220;5.308;2023-06-14T00:41:04;20.30;58.00
41481;DHT22;27217;51.220;5.308;2023-06-14T00:43:30;20.30;58.20
41481;DHT22;27217;51.220;5.308;2023-06-14T00:45:56;20.30;58.30
41481;DHT22;27217;51.220;5.308;2023-06-14T00:48:22;20.30;58.80
41481;DHT22;27217;51.220;5.308;2023-06-14T00:50:49;20.40;58.20
41481;DHT22;27217;51.220;5.308;2023-06-14T00:53:17;20.40;58.40
41481;DHT22;27217;51.220;5.308;2023-06-14T00:55:48;20.50;57.80
41481;DHT22;27217;51.220;5.308;2023-06-14T00:58:15;20.40;58.00
41481;DHT22;27217;51.220;5.308;2023-06-14T01:00:41;20.40;58.10
41481;DHT22;27217;51.220;5.308;2023-06-14T01:03:07;20.30;58.60
41481;DHT22;27217;51.220;5.308;2023-06-14T01:05:37;20.20;58.90
41481;DHT22;27217;51.220;5.308;2023-06-14T01:10:59;20.20;59.30
41481;DHT22;27217;51.220;5.308;2023-06-14T01:13:38;20.10;59.50
41481;DHT22;27217;51.220;5.308;2023-06-14T01:16:06;19.90;60.00
41481;DHT22;27217;51.220;5.308;2023-06-14T01:18:34;19.90;60.10
41481;DHT22;27217;51.220;5.308;2023-06-14T01:21:00;19.80;60.30
41481;DHT22;27217;51.220;5.308;2023-06-14T01:23:31;19.70;60.60
41481;DHT22;27217;51.220;5.308;2023-06-14T01:26:01;19.60;61.00
41481;DHT22;27217;51.220;5.308;2023-06-14T01:28:28;19.70;61.00
41481;DHT22;27217;51.220;5.308;2023-06-14T01:31:01;19.70;60.90
41481;DHT22;27217;51.220;5.308;2023-06-14T01:33:30;19.70;61.00
41481;DHT22;27217;51.220;5.308;2023-06-14T01:35:56;19.70;60.90
41481;DHT22;27217;51.220;5.308;2023-06-14T01:38:26;19.60;61.40
41481;DHT22;27217;51.220;5.308;2023-06-14T01:40:54;19.50;62.10
41481;DHT22;27217;51.220;5.308;2023-06-14T01:43:21;19.60;62.10
41481;DHT22;27217;51.220;5.308;2023-06-14T01:45:53;19.70;61.40
41481;DHT22;27217;51.220;5.308;2023-06-14T01:48:21;19.30;63.00
41481;DHT22;27217;51.220;5.308;2023-06-14T01:50:48;19.30;62.90
41481;DHT22;27217;51.220;5.308;2023-06-14T01:53:15;19.20;62.90
41481;DHT22;27217;51.220;5.308;2023-06-14T01:55:41;19.30;63.10
41481;DHT22;27217;51.220;5.308;2023-06-14T01:58:10;19.20;63.60
41481;DHT22;27217;51.220;5.308;2023-06-14T02:00:36;19.10;63.60
41481;DHT22;27217;51.220;5.308;2023-06-14T02:03:02;19.10;64.10
41481;DHT22;27217;51.220;5.308;2023-06-14T02:05:30;19.20;63.60
41481;DHT22;27217;51.220;5.308;2023-06-14T02:07:56;19.10;63.30
41481;DHT22;27217;51.220;5.308;2023-06-14T02:10:21;19.10;63.10
41481;DHT22;27217;51.220;5.308;2023-06-14T02:12:47;19.00;63.10
41481;DHT22;27217;51.220;5.308;2023-06-14T02:15:13;18.90;63.40
41481;DHT22;27217;51.220;5.308;2023-06-14T02:17:43;19.10;62.50
41481;DHT22;27217;51.220;5.308;2023-06-14T02:20:09;19.20;62.20
41481;DHT22;27217;51.220;5.308;2023-06-14T02:22:35;19.10;62.20
41481;DHT22;27217;51.220;5.308;2023-06-14T02:25:02;19.10;62.00
41481;DHT22;27217;51.220;5.308;2023-06-14T02:27:27;19.00;62.50
41481;DHT22;27217;51.220;5.308;2023-06-14T02:29:53;19.10;62.50
41481;DHT22;27217;51.220;5.308;2023-06-14T02:32:19;19.00;62.60
41481;DHT22;27217;51.220;5.308;2023-06-14T02:34:45;18.80;63.50
41481;DHT22;27217;51.220;5.308;2023-06-14T02:37:18;18.70;63.90
41481;DHT22;27217;51.220;5.308;2023-06-14T02:39:43;18.60;64.40
41481;DHT22;27217;51.220;5.308;2023-06-14T02:42:09;18.60;64.30
41481;DHT22;27217;51.220;5.308;2023-06-14T02:44:35;18.60;64.30
41481;DHT22;27217;51.220;5.308;2023-06-14T02:47:02;18.50;64.90
41481;DHT22;27217;51.220;5.308;2023-06-14T02:49:28;18.40;65.20
41481;DHT22;27217;51.220;5.308;2023-06-14T02:51:55;18.40;65.50
41481;DHT22;27217;51.220;5.308;2023-06-14T02:54:21;18.40;65.50
41481;DHT22;27217;51.220;5.308;2023-06-14T02:56:47;18.40;65.30
41481;DHT22;27217;51.220;5.308;2023-06-14T02:59:13;18.50;64.70
41481;DHT22;27217;51.220;5.308;2023-06-14T03:01:39;18.50;65.00
41481;DHT22;27217;51.220;5.308;2023-06-14T03:04:07;18.30;65.60
41481;DHT22;27217;51.220;5.308;2023-06-14T03:06:33;18.30;65.90
41481;DHT22;27217;51.220;5.308;2023-06-14T03:09:00;18.20;66.10
41481;DHT22;27217;51.220;5.308;2023-06-14T03:11:26;18.30;66.30
41481;DHT22;27217;51.220;5.308;2023-06-14T03:13:53;18.10;67.00
41481;DHT22;27217;51.220;5.308;2023-06-14T03:16:19;18.00;67.80
41481;DHT22;27217;51.220;5.308;2023-06-14T03:18:45;17.90;68.30
41481;DHT22;27217;51.220;5.308;2023-06-14T03:21:10;17.80;68.80
41481;DHT22;27217;51.220;5.308;2023-06-14T03:23:36;17.90;68.40
41481;DHT22;27217;51.220;5.308;2023-06-14T03:26:02;17.90;68.50
41481;DHT22;27217;51.220;5.308;2023-06-14T03:28:28;18.00;68.00
41481;DHT22;27217;51.220;5.308;2023-06-14T03:30:53;18.00;68.00
41481;DHT22;27217;51.220;5.308;2023-06-14T03:33:19;17.90;68.40
41481;DHT22;27217;51.220;5.308;2023-06-14T03:35:46;17.90;68.80
41481;DHT22;27217;51.220;5.308;2023-06-14T03:38:12;18.00;68.70
41481;DHT22;27217;51.220;5.308;2023-06-14T03:40:38;17.90;68.90
41481;DHT22;27217;51.220;5.308;2023-06-14T03:43:04;17.80;69.50
41481;DHT22;27217;51.220;5.308;2023-06-14T03:45:29;17.80;70.20
41481;DHT22;27217;51.220;5.308;2023-06-14T03:47:55;17.80;69.90
41481;DHT22;27217;51.220;5.308;2023-06-14T03:50:22;18.00;69.50
41481;DHT22;27217;51.220;5.308;2023-06-14T03:52:51;17.90;70.00
41481;DHT22;27217;51.220;5.308;2023-06-14T03:55:16;17.90;70.20
41481;DHT22;27217;51.220;5.308;2023-06-14T03:57:42;17.90;70.20
41481;DHT22;27217;51.220;5.308;2023-06-14T04:00:09;17.90;70.40
41481;DHT22;27217;51.220;5.308;2023-06-14T04:02:35;17.80;71.30
41481;DHT22;27217;51.220;5.308;2023-06-14T04:05:02;17.60;71.60
41481;DHT22;27217;51.220;5.308;2023-06-14T04:07:28;17.70;71.90
41481;DHT22;27217;51.220;5.308;2023-06-14T04:09:55;17.80;71.60
41481;DHT22;27217;51.220;5.308;2023-06-14T04:12:21;18.00;70.60
41481;DHT22;27217;51.220;5.308;2023-06-14T04:14:47;18.10;70.20
41481;DHT22;27217;51.220;5.308;2023-06-14T04:17:13;18.00;70.00
41481;DHT22;27217;51.220;5.308;2023-06-14T04:19:39;17.90;70.70
41481;DHT22;27217;51.220;5.308;2023-06-14T04:22:06;17.80;71.30
41481;DHT22;27217;51.220;5.308;2023-06-14T04:24:32;17.90;71.30
41481;DHT22;27217;51.220;5.308;2023-06-14T04:27:00;17.90;71.50
41481;DHT22;27217;51.220;5.308;2023-06-14T04:29:27;18.00;70.70
41481;DHT22;27217;51.220;5.308;2023-06-14T04:31:55;18.10;70.10
41481;DHT22;27217;51.220;5.308;2023-06-14T04:34:27;18.10;70.30
41481;DHT22;27217;51.220;5.308;2023-06-14T04:36:59;18.00;71.40
41481;DHT22;27217;51.220;5.308;2023-06-14T04:39:26;18.00;70.90
41481;DHT22;27217;51.220;5.308;2023-06-14T04:41:53;18.10;70.50
41481;DHT22;27217;51.220;5.308;2023-06-14T04:44:25;18.10;70.70
41481;DHT22;27217;51.220;5.308;2023-06-14T04:47:01;18.00;71.60
41481;DHT22;27217;51.220;5.308;2023-06-14T04:49:27;18.10;71.30
41481;DHT22;27217;51.220;5.308;2023-06-14T04:51:53;18.00;71.40
41481;DHT22;27217;51.220;5.308;2023-06-14T04:54:23;18.10;71.50
41481;DHT22;27217;51.220;5.308;2023-06-14T04:56:51;18.10;71.50
41481;DHT22;27217;51.220;5.308;2023-06-14T04:59:18;18.20;71.10
41481;DHT22;27217;51.220;5.308;2023-06-14T05:01:44;18.30;70.80
41481;DHT22;27217;51.220;5.308;2023-06-14T05:04:14;18.30;70.50
41481;DHT22;27217;51.220;5.308;2023-06-14T05:06:44;18.20;71.10
41481;DHT22;27217;51.220;5.308;2023-06-14T05:09:15;18.10;71.60
41481;DHT22;27217;51.220;5.308;2023-06-14T05:11:44;18.10;71.70
41481;DHT22;27217;51.220;5.308;2023-06-14T05:14:13;18.10;71.70
41481;DHT22;27217;51.220;5.308;2023-06-14T05:16:40;18.10;71.50
41481;DHT22;27217;51.220;5.308;2023-06-14T05:19:06;18.20;71.10
41481;DHT22;27217;51.220;5.308;2023-06-14T05:21:32;18.40;70.10
41481;DHT22;27217;51.220;5.308;2023-06-14T05:24:00;18.50;69.90
41481;DHT22;27217;51.220;5.308;2023-06-14T05:26:26;18.60;69.70
41481;DHT22;27217;51.220;5.308;2023-06-14T05:28:58;18.60;69.80
41481;DHT22;27217;51.220;5.308;2023-06-14T05:31:27;18.50;70.40
41481;DHT22;27217;51.220;5.308;2023-06-14T05:33:53;18.70;69.90
41481;DHT22;27217;51.220;5.308;2023-06-14T05:36:20;18.60;70.40
41481;DHT22;27217;51.220;5.308;2023-06-14T05:38:46;18.60;70.40
41481;DHT22;27217;51.220;5.308;2023-06-14T05:41:13;18.80;69.80
41481;DHT22;27217;51.220;5.308;2023-06-14T05:43:38;18.90;69.70
41481;DHT22;27217;51.220;5.308;2023-06-14T05:46:04;19.00;69.90
41481;DHT22;27217;51.220;5.308;2023-06-14T05:48:33;19.00;69.70
41481;DHT22;27217;51.220;5.308;2023-06-14T05:51:00;19.10;69.90
41481;DHT22;27217;51.220;5.308;2023-06-14T05:53:25;19.00;70.50
41481;DHT22;27217;51.220;5.308;2023-06-14T05:55:51;18.90;71.00
41481;DHT22;27217;51.220;5.308;2023-06-14T05:58:19;19.10;71.00
41481;DHT22;27217;51.220;5.308;2023-06-14T06:00:45;19.20;70.20
41481;DHT22;27217;51.220;5.308;2023-06-14T06:03:12;19.30;70.00
41481;DHT22;27217;51.220;5.308;2023-06-14T06:05:38;19.30;70.40
41481;DHT22;27217;51.220;5.308;2023-06-14T06:08:04;19.30;70.90
41481;DHT22;27217;51.220;5.308;2023-06-14T06:10:30;19.50;70.00
41481;DHT22;27217;51.220;5.308;2023-06-14T06:12:56;19.70;69.40
41481;DHT22;27217;51.220;5.308;2023-06-14T06:15:25;19.70;68.70
41481;DHT22;27217;51.220;5.308;2023-06-14T06:17:51;19.70;69.10
41481;DHT22;27217;51.220;5.308;2023-06-14T06:20:17;19.80;68.80
41481;DHT22;27217;51.220;5.308;2023-06-14T06:22:43;19.80;68.80
41481;DHT22;27217;51.220;5.308;2023-06-14T06:25:09;19.80;69.30
41481;DHT22;27217;51.220;5.308;2023-06-14T06:27:35;20.10;68.70
41481;DHT22;27217;51.220;5.308;2023-06-14T06:30:03;20.30;68.00
41481;DHT22;27217;51.220;5.308;2023-06-14T06:32:30;20.30;67.60
41481;DHT22;27217;51.220;5.308;2023-06-14T06:34:56;20.40;67.80
41481;DHT22;27217;51.220;5.308;2023-06-14T06:37:23;20.60;67.40
41481;DHT22;27217;51.220;5.308;2023-06-14T06:39:51;20.70;66.30
41481;DHT22;27217;51.220;5.308;2023-06-14T06:42:17;20.80;66.30
41481;DHT22;27217;51.220;5.308;2023-06-14T06:44:43;20.80;66.30
41481;DHT22;27217;51.220;5.308;2023-06-14T06:47:09;20.90;65.40
41481;DHT22;27217;51.220;5.308;2023-06-14T06:49:36;20.90;65.20
41481;DHT22;27217;51.220;5.308;2023-06-14T06:52:03;21.00;64.40
41481;DHT22;27217;51.220;5.308;2023-06-14T06:54:30;21.00;63.70
41481;DHT22;27217;51.220;5.308;2023-06-14T06:56:58;21.20;63.70
41481;DHT22;27217;51.220;5.308;2023-06-14T06:59:25;21.20;64.10
41481;DHT22;27217;51.220;5.308;2023-06-14T07:01:50;21.30;63.00
41481;DHT22;27217;51.220;5.308;2023-06-14T07:04:16;21.50;62.40
41481;DHT22;27217;51.220;5.308;2023-06-14T07:06:42;21.40;62.30
41481;DHT22;27217;51.220;5.308;2023-06-14T07:09:08;21.60;61.30
41481;DHT22;27217;51.220;5.308;2023-06-14T07:11:38;21.50;60.90
41481;DHT22;27217;51.220;5.308;2023-06-14T07:14:04;21.50;60.40
41481;DHT22;27217;51.220;5.308;2023-06-14T07:16:30;21.50;61.20
41481;DHT22;27217;51.220;5.308;2023-06-14T07:18:56;21.70;61.00
41481;DHT22;27217;51.220;5.308;2023-06-14T07:21:22;21.90;60.00
41481;DHT22;27217;51.220;5.308;2023-06-14T07:23:48;22.20;59.20
41481;DHT22;27217;51.220;5.308;2023-06-14T07:26:14;22.10;59.00
41481;DHT22;27217;51.220;5.308;2023-06-14T07:28:40;22.00;59.10
41481;DHT22;27217;51.220;5.308;2023-06-14T07:31:05;21.90;59.40
41481;DHT22;27217;51.220;5.308;2023-06-14T07:33:32;22.00;59.00
41481;DHT22;27217;51.220;5.308;2023-06-14T07:35:58;22.30;58.80
41481;DHT22;27217;51.220;5.308;2023-06-14T07:38:24;22.30;58.30
41481;DHT22;27217;51.220;5.308;2023-06-14T07:40:50;22.40;58.90
41481;DHT22;27217;51.220;5.308;2023-06-14T07:43:16;22.50;58.60
41481;DHT22;27217;51.220;5.308;2023-06-14T07:45:42;22.70;58.00
41481;DHT22;27217;51.220;5.308;2023-06-14T07:48:08;22.90;57.20
41481;DHT22;27217;51.220;5.308;2023-06-14T07:50:34;23.00;56.90
41481;DHT22;27217;51.220;5.308;2023-06-14T07:53:00;23.00;56.30
41481;DHT22;27217;51.220;5.308;2023-06-14T07:55:26;23.00;56.20
41481;DHT22;27217;51.220;5.308;2023-06-14T07:57:52;23.00;55.50
41481;DHT22;27217;51.220;5.308;2023-06-14T08:00:18;22.90;56.50
41481;DHT22;27217;51.220;5.308;2023-06-14T08:02:45;22.90;56.40
41481;DHT22;27217;51.220;5.308;2023-06-14T08:05:11;23.00;56.10
41481;DHT22;27217;51.220;5.308;2023-06-14T08:07:38;23.00;55.40
41481;DHT22;27217;51.220;5.308;2023-06-14T08:10:05;23.30;53.80
41481;DHT22;27217;51.220;5.308;2023-06-14T08:12:32;23.20;54.70
41481;DHT22;27217;51.220;5.308;2023-06-14T08:14:58;23.20;54.80
41481;DHT22;27217;51.220;5.308;2023-06-14T08:17:24;23.30;54.50
41481;DHT22;27217;51.220;5.308;2023-06-14T08:19:50;23.60;54.80
41481;DHT22;27217;51.220;5.308;2023-06-14T08:22:16;23.70;53.80
41481;DHT22;27217;51.220;5.308;2023-06-14T08:24:43;23.60;54.20
41481;DHT22;27217;51.220;5.308;2023-06-14T08:27:10;23.90;53.20
41481;DHT22;27217;51.220;5.308;2023-06-14T08:29:36;24.00;52.90
41481;DHT22;27217;51.220;5.308;2023-06-14T08:32:04;24.20;51.80
41481;DHT22;27217;51.220;5.308;2023-06-14T08:34:30;24.10;52.00
41481;DHT22;27217;51.220;5.308;2023-06-14T08:36:56;24.10;51.60
41481;DHT22;27217;51.220;5.308;2023-06-14T08:39:21;24.00;52.50
41481;DHT22;27217;51.220;5.308;2023-06-14T08:41:47;24.10;52.00
41481;DHT22;27217;51.220;5.308;2023-06-14T08:44:17;24.00;51.10
41481;DHT22;27217;51.220;5.308;2023-06-14T08:46:43;24.00;50.60
41481;DHT22;27217;51.220;5.308;2023-06-14T08:49:12;24.20;50.40
41481;DHT22;27217;51.220;5.308;2023-06-14T08:51:43;24.40;50.30
41481;DHT22;27217;51.220;5.308;2023-06-14T08:54:11;24.40;50.50
41481;DHT22;27217;51.220;5.308;2023-06-14T08:56:38;24.30;50.70
41481;DHT22;27217;51.220;5.308;2023-06-14T08:59:04;24.40;49.90
41481;DHT22;27217;51.220;5.308;2023-06-14T09:01:35;24.60;49.20
41481;DHT22;27217;51.220;5.308;2023-06-14T09:04:02;24.70;48.00
41481;DHT22;27217;51.220;5.308;2023-06-14T09:06:28;24.80;48.00
41481;DHT22;27217;51.220;5.308;2023-06-14T09:08:55;24.70;48.10
41481;DHT22;27217;51.220;5.308;2023-06-14T09:11:24;24.90;48.40
41481;DHT22;27217;51.220;5.308;2023-06-14T09:13:51;25.00;48.00
41481;DHT22;27217;51.220;5.308;2023-06-14T09:16:17;25.10;47.90
41481;DHT22;27217;51.220;5.308;2023-06-14T09:18:45;25.00;48.00
41481;DHT22;27217;51.220;5.308;2023-06-14T09:21:13;25.00;48.30
41481;DHT22;27217;51.220;5.308;2023-06-14T09:23:41;25.00;48.60
41481;DHT22;27217;51.220;5.308;2023-06-14T09:26:18;25.10;48.10
41481;DHT22;27217;51.220;5.308;2023-06-14T09:28:49;25.10;48.30
41481;DHT22;27217;51.220;5.308;2023-06-14T09:31:19;25.00;47.90
41481;DHT22;27217;51.220;5.308;2023-06-14T09:33:47;25.30;47.70
41481;DHT22;27217;51.220;5.308;2023-06-14T09:36:23;25.40;47.20
41481;DHT22;27217;51.220;5.308;2023-06-14T09:39:02;25.40;46.40
41481;DHT22;27217;51.220;5.308;2023-06-14T09:41:39;25.40;46.80
41481;DHT22;27217;51.220;5.308;2023-06-14T09:44:09;25.40;46.80
41481;DHT22;27217;51.220;5.308;2023-06-14T09:46:37;25.60;46.70
41481;DHT22;27217;51.220;5.308;2023-06-14T09:49:04;25.70;46.20
41481;DHT22;27217;51.220;5.308;2023-06-14T09:51:30;25.60;45.50
41481;DHT22;27217;51.220;5.308;2023-06-14T09:54:02;25.70;44.80
41481;DHT22;27217;51.220;5.308;2023-06-14T09:56:37;25.70;43.90
41481;DHT22;27217;51.220;5.308;2023-06-14T09:59:08;25.80;44.90
41481;DHT22;27217;51.220;5.308;2023-06-14T10:01:35;25.80;44.30
41481;DHT22;27217;51.220;5.308;2023-06-14T10:04:06;25.80;43.50
41481;DHT22;27217;51.220;5.308;2023-06-14T10:06:36;26.00;43.20
41481;DHT22;27217;51.220;5.308;2023-06-14T10:09:04;26.10;43.20
41481;DHT22;27217;51.220;5.308;2023-06-14T10:11:31;26.00;42.80
41481;DHT22;27217;51.220;5.308;2023-06-14T10:13:58;26.10;41.60
41481;DHT22;27217;51.220;5.308;2023-06-14T10:19:13;26.40;40.20
41481;DHT22;27217;51.220;5.308;2023-06-14T10:22:00;26.40;40.50
41481;DHT22;27217;51.220;5.308;2023-06-14T10:24:32;26.30;40.50
41481;DHT22;27217;51.220;5.308;2023-06-14T10:26:59;26.60;40.50
41481;DHT22;27217;51.220;5.308;2023-06-14T10:29:28;26.80;40.60
41481;DHT22;27217;51.220;5.308;2023-06-14T10:31:58;26.60;40.10
41481;DHT22;27217;51.220;5.308;2023-06-14T10:34:29;26.60;40.30
41481;DHT22;27217;51.220;5.308;2023-06-14T10:39:41;26.90;38.60
41481;DHT22;27217;51.220;5.308;2023-06-14T10:42:08;27.00;38.90
41481;DHT22;27217;51.220;5.308;2023-06-14T10:44:38;26.80;38.40
41481;DHT22;27217;51.220;5.308;2023-06-14T10:47:21;26.80;39.10
41481;DHT22;27217;51.220;5.308;2023-06-14T10:49:55;27.00;39.10
41481;DHT22;27217;51.220;5.308;2023-06-14T10:52:27;27.20;38.50
41481;DHT22;27217;51.220;5.308;2023-06-14T10:55:06;27.30;39.00
41481;DHT22;27217;51.220;5.308;2023-06-14T10:57:42;27.20;38.90
41481;DHT22;27217;51.220;5.308;2023-06-14T11:00:10;27.20;38.70
41481;DHT22;27217;51.220;5.308;2023-06-14T11:05:30;27.50;39.30
41481;DHT22;27217;51.220;5.308;2023-06-14T11:10:40;27.80;38.20
41481;DHT22;27217;51.220;5.308;2023-06-14T11:13:10;27.80;38.00
41481;DHT22;27217;51.220;5.308;2023-06-14T11:15:37;28.80;37.10
41481;DHT22;27217;51.220;5.308;2023-06-14T11:18:05;30.20;35.70
41481;DHT22;27217;51.220;5.308;2023-06-14T11:20:34;31.60;34.10
41481;DHT22;27217;51.220;5.308;2023-06-14T11:23:01;32.50;32.70
41481;DHT22;27217;51.220;5.308;2023-06-14T11:25:27;33.40;31.90
41481;DHT22;27217;51.220;5.308;2023-06-14T11:27:58;33.70;31.50
41481;DHT22;27217;51.220;5.308;2023-06-14T11:30:24;34.10;31.10
41481;DHT22;27217;51.220;5.308;2023-06-14T11:32:52;33.50;31.30
41481;DHT22;27217;51.220;5.308;2023-06-14T11:35:19;34.10;31.30
41481;DHT22;27217;51.220;5.308;2023-06-14T11:37:49;34.30;31.00
41481;DHT22;27217;51.220;5.308;2023-06-14T11:40:15;34.60;30.50
41481;DHT22;27217;51.220;5.308;2023-06-14T11:42:41;35.10;30.40
41481;DHT22;27217;51.220;5.308;2023-06-14T11:45:09;36.30;29.80
41481;DHT22;27217;51.220;5.308;2023-06-14T11:47:37;36.10;29.70
41481;DHT22;27217;51.220;5.308;2023-06-14T11:50:08;36.50;29.90
41481;DHT22;27217;51.220;5.308;2023-06-14T11:52:34;36.40;29.80
41481;DHT22;27217;51.220;5.308;2023-06-14T11:55:02;36.00;30.10
41481;DHT22;27217;51.220;5.308;2023-06-14T11:57:33;36.50;29.50
41481;DHT22;27217;51.220;5.308;2023-06-14T12:00:00;35.90;29.90
41481;DHT22;27217;51.220;5.308;2023-06-14T12:02:25;34.90;30.90
41481;DHT22;27217;51.220;5.308;2023-06-14T12:04:54;34.70;30.50
41481;DHT22;27217;51.220;5.308;2023-06-14T12:07:22;36.30;29.90
41481;DHT22;27217;51.220;5.308;2023-06-14T12:12:24;35.40;30.30
41481;DHT22;27217;51.220;5.308;2023-06-14T12:14:54;34.60;31.10
41481;DHT22;27217;51.220;5.308;2023-06-14T12:17:21;34.80;30.60
41481;DHT22;27217;51.220;5.308;2023-06-14T12:19:49;34.00;31.30
41481;DHT22;27217;51.220;5.308;2023-06-14T12:22:16;33.80;31.50
41481;DHT22;27217;51.220;5.308;2023-06-14T12:24:45;34.30;31.30
41481;DHT22;27217;51.220;5.308;2023-06-14T12:27:12;34.50;30.90
41481;DHT22;27217;51.220;5.308;2023-06-14T12:29:41;35.20;30.40
41481;DHT22;27217;51.220;5.308;2023-06-14T12:32:09;35.30;30.20
41481;DHT22;27217;51.220;5.308;2023-06-14T12:34:35;36.00;30.00
41481;DHT22;27217;51.220;5.308;2023-06-14T12:37:01;35.70;29.70
41481;DHT22;27217;51.220;5.308;2023-06-14T12:39:30;35.80;29.90
41481;DHT22;27217;51.220;5.308;2023-06-14T12:41:57;36.60;30.00
41481;DHT22;27217;51.220;5.308;2023-06-14T12:44:23;35.90;30.00
41481;DHT22;27217;51.220;5.308;2023-06-14T12:46:50;36.00;30.00
41481;DHT22;27217;51.220;5.308;2023-06-14T12:49:18;35.70;29.80
41481;DHT22;27217;51.220;5.308;2023-06-14T12:51:45;36.80;29.30
41481;DHT22;27217;51.220;5.308;2023-06-14T12:54:11;38.30;29.30
41481;DHT22;27217;51.220;5.308;2023-06-14T12:56:38;38.00;28.80
41481;DHT22;27217;51.220;5.308;2023-06-14T12:59:04;36.80;29.80
41481;DHT22;27217;51.220;5.308;2023-06-14T13:01:31;38.20;29.50
41481;DHT22;27217;51.220;5.308;2023-06-14T13:03:57;37.60;29.50
41481;DHT22;27217;51.220;5.308;2023-06-14T13:06:23;36.90;29.70
41481;DHT22;27217;51.220;5.308;2023-06-14T13:08:49;36.00;30.50
41481;DHT22;27217;51.220;5.308;2023-06-14T13:11:16;35.80;30.90
41481;DHT22;27217;51.220;5.308;2023-06-14T13:13:41;36.40;30.40
41481;DHT22;27217;51.220;5.308;2023-06-14T13:16:07;36.50;30.10
41481;DHT22;27217;51.220;5.308;2023-06-14T13:18:33;36.80;30.00
41481;DHT22;27217;51.220;5.308;2023-06-14T13:20:59;37.30;29.70
41481;DHT22;27217;51.220;5.308;2023-06-14T13:23:26;37.00;29.40
41481;DHT22;27217;51.220;5.308;2023-06-14T13:25:52;37.20;28.80
41481;DHT22;27217;51.220;5.308;2023-06-14T13:28:18;37.30;28.50
41481;DHT22;27217;51.220;5.308;2023-06-14T13:30:44;37.30;28.60
41481;DHT22;27217;51.220;5.308;2023-06-14T13:33:10;37.10;29.10
41481;DHT22;27217;51.220;5.308;2023-06-14T13:35:36;37.40;29.40
41481;DHT22;27217;51.220;5.308;2023-06-14T13:38:01;37.80;29.10
41481;DHT22;27217;51.220;5.308;2023-06-14T13:40:27;38.40;28.80
41481;DHT22;27217;51.220;5.308;2023-06-14T13:42:53;38.50;28.60
41481;DHT22;27217;51.220;5.308;2023-06-14T13:45:19;38.00;28.90
41481;DHT22;27217;51.220;5.308;2023-06-14T13:47:45;37.60;29.30
41481;DHT22;27217;51.220;5.308;2023-06-14T13:50:14;37.60;29.00
41481;DHT22;27217;51.220;5.308;2023-06-14T13:52:39;38.70;28.20
41481;DHT22;27217;51.220;5.308;2023-06-14T13:55:05;38.80;27.90
41481;DHT22;27217;51.220;5.308;2023-06-14T13:57:31;39.40;27.90
41481;DHT22;27217;51.220;5.308;2023-06-14T13:59:58;37.80;28.00
41481;DHT22;27217;51.220;5.308;2023-06-14T14:02:27;37.70;28.80
41481;DHT22;27217;51.220;5.308;2023-06-14T14:04:54;38.20;29.00
41481;DHT22;27217;51.220;5.308;2023-06-14T14:07:20;38.70;28.70
41481;DHT22;27217;51.220;5.308;2023-06-14T14:09:47;38.40;28.60
41481;DHT22;27217;51.220;5.308;2023-06-14T14:12:13;38.50;28.80
41481;DHT22;27217;51.220;5.308;2023-06-14T14:14:39;38.90;28.90
41481;DHT22;27217;51.220;5.308;2023-06-14T14:17:05;39.00;28.80
41481;DHT22;27217;51.220;5.308;2023-06-14T14:19:32;38.30;28.70
41481;DHT22;27217;51.220;5.308;2023-06-14T14:21:58;38.30;29.00
41481;DHT22;27217;51.220;5.308;2023-06-14T14:24:24;38.80;28.50
41481;DHT22;27217;51.220;5.308;2023-06-14T14:26:51;38.20;28.50
41481;DHT22;27217;51.220;5.308;2023-06-14T14:29:19;37.40;28.80
41481;DHT22;27217;51.220;5.308;2023-06-14T14:31:45;38.30;28.30
41481;DHT22;27217;51.220;5.308;2023-06-14T14:34:10;38.20;28.30
41481;DHT22;27217;51.220;5.308;2023-06-14T14:36:36;37.60;28.50
41481;DHT22;27217;51.220;5.308;2023-06-14T14:39:04;38.60;28.60
41481;DHT22;27217;51.220;5.308;2023-06-14T14:41:29;38.50;28.40
41481;DHT22;27217;51.220;5.308;2023-06-14T14:43:55;37.40;28.60
41481;DHT22;27217;51.220;5.308;2023-06-14T14:46:21;37.50;28.70
41481;DHT22;27217;51.220;5.308;2023-06-14T14:48:47;37.50;28.80
41481;DHT22;27217;51.220;5.308;2023-06-14T14:51:13;37.90;28.90
41481;DHT22;27217;51.220;5.308;2023-06-14T14:53:39;38.20;28.40
41481;DHT22;27217;51.220;5.308;2023-06-14T14:56:06;38.30;28.40
41481;DHT22;27217;51.220;5.308;2023-06-14T14:58:35;38.40;28.50
41481;DHT22;27217;51.220;5.308;2023-06-14T15:01:01;38.70;28.50
41481;DHT22;27217;51.220;5.308;2023-06-14T15:03:26;38.80;28.20
41481;DHT22;27217;51.220;5.308;2023-06-14T15:05:52;39.10;28.00
41481;DHT22;27217;51.220;5.308;2023-06-14T15:08:17;38.00;28.30
41481;DHT22;27217;51.220;5.308;2023-06-14T15:10:44;37.10;29.30
41481;DHT22;27217;51.220;5.308;2023-06-14T15:13:10;37.10;28.80
41481;DHT22;27217;51.220;5.308;2023-06-14T15:15:36;38.00;28.40
41481;DHT22;27217;51.220;5.308;2023-06-14T15:18:03;38.00;28.30
41481;DHT22;27217;51.220;5.308;2023-06-14T15:20:29;38.00;28.50
41481;DHT22;27217;51.220;5.308;2023-06-14T15:22:55;37.80;28.40
41481;DHT22;27217;51.220;5.308;2023-06-14T15:25:27;38.70;28.10
41481;DHT22;27217;51.220;5.308;2023-06-14T15:27:54;39.20;28.10
41481;DHT22;27217;51.220;5.308;2023-06-14T15:30:21;39.60;27.80
41481;DHT22;27217;51.220;5.308;2023-06-14T15:32:47;39.20;27.80
41481;DHT22;27217;51.220;5.308;2023-06-14T15:35:13;38.60;27.70
41481;DHT22;27217;51.220;5.308;2023-06-14T15:37:39;40.10;27.90
41481;DHT22;27217;51.220;5.308;2023-06-14T15:40:06;39.40;28.20
41481;DHT22;27217;51.220;5.308;2023-06-14T15:42:32;38.60;28.30
41481;DHT22;27217;51.220;5.308;2023-06-14T15:44:57;38.60;28.00
41481;DHT22;27217;51.220;5.308;2023-06-14T15:47:23;39.00;27.90